sensor_id;sensor_type;location;lat;lon;timestamp;P1;durP1;ratioP1;P2;durP2;ratioP2
14408;SDS011;7289;50.706;4.992;2022-10-03T00:01:02;0.10;;;0.10;;
14408;SDS011;7289;50.706;4.992;2022-10-03T00:03:55;0.20;;;0.20;;
14408;SDS011;7289;50.706;4.992;2022-10-03T00:06:39;0.17;;;0.17;;
14408;SDS011;7289;50.706;4.992;2022-10-03T00:09:24;0.20;;;0.20;;
14408;SDS011;7289;50.706;4.992;2022-10-03T00:12:10;0.10;;;0.10;;
14408;SDS011;7289;50.706;4.992;2022-10-03T00:14:50;0.20;;;0.20;;
14408;SDS011;7289;50.706;4.992;2022-10-03T00:17:27;0.10;;;0.10;;
14408;SDS011;7289;50.706;4.992;2022-10-03T00:20:10;0.20;;;0.20;;
14408;SDS011;7289;50.706;4.992;2022-10-03T00:22:58;0.10;;;0.10;;
14408;SDS011;7289;50.706;4.992;2022-10-03T00:25:31;0.20;;;0.20;;
14408;SDS011;7289;50.706;4.992;2022-10-03T00:28:11;0.10;;;0.10;;
14408;SDS011;7289;50.706;4.992;2022-10-03T00:31:04;0.10;;;0.10;;
14408;SDS011;7289;50.706;4.992;2022-10-03T00:33:39;0.10;;;0.10;;
14408;SDS011;7289;50.706;4.992;2022-10-03T00:36:24;0.10;;;0.10;;
14408;SDS011;7289;50.706;4.992;2022-10-03T00:39:10;0.20;;;0.20;;
14408;SDS011;7289;50.706;4.992;2022-10-03T00:41:50;0.20;;;0.20;;
14408;SDS011;7289;50.706;4.992;2022-10-03T00:51:09;0.20;;;0.20;;
14408;SDS011;7289;50.706;4.992;2022-10-03T00:54:02;0.10;;;0.10;;
14408;SDS011;7289;50.706;4.992;2022-10-03T00:56:43;0.20;;;0.20;;
14408;SDS011;7289;50.706;4.992;2022-10-03T00:59:33;0.20;;;0.20;;
14408;SDS011;7289;50.706;4.992;2022-10-03T01:02:16;0.20;;;0.20;;
14408;SDS011;7289;50.706;4.992;2022-10-03T01:04:56;0.20;;;0.20;;
14408;SDS011;7289;50.706;4.992;2022-10-03T01:07:49;0.20;;;0.20;;
14408;SDS011;7289;50.706;4.992;2022-10-03T01:10:35;0.20;;;0.20;;
14408;SDS011;7289;50.706;4.992;2022-10-03T01:13:15;0.10;;;0.10;;
14408;SDS011;7289;50.706;4.992;2022-10-03T01:15:56;0.17;;;0.17;;
14408;SDS011;7289;50.706;4.992;2022-10-03T01:18:34;0.20;;;0.20;;
14408;SDS011;7289;50.706;4.992;2022-10-03T01:21:17;0.20;;;0.20;;
14408;SDS011;7289;50.706;4.992;2022-10-03T01:27:05;0.13;;;0.13;;
14408;SDS011;7289;50.706;4.992;2022-10-03T01:29:42;0.20;;;0.20;;
14408;SDS011;7289;50.706;4.992;2022-10-03T01:32:35;0.10;;;0.10;;
14408;SDS011;7289;50.706;4.992;2022-10-03T01:35:19;0.20;;;0.20;;
14408;SDS011;7289;50.706;4.992;2022-10-03T01:37:56;0.20;;;0.20;;
14408;SDS011;7289;50.706;4.992;2022-10-03T01:40:33;0.20;;;0.20;;
14408;SDS011;7289;50.706;4.992;2022-10-03T01:43:09;0.20;;;0.20;;
14408;SDS011;7289;50.706;4.992;2022-10-03T01:45:51;0.13;;;0.13;;
14408;SDS011;7289;50.706;4.992;2022-10-03T01:48:28;0.20;;;0.20;;
14408;SDS011;7289;50.706;4.992;2022-10-03T01:51:02;0.20;;;0.20;;
14408;SDS011;7289;50.706;4.992;2022-10-03T01:53:37;0.20;;;0.20;;
14408;SDS011;7289;50.706;4.992;2022-10-03T01:56:18;0.20;;;0.20;;
14408;SDS011;7289;50.706;4.992;2022-10-03T01:58:57;0.20;;;0.20;;
14408;SDS011;7289;50.706;4.992;2022-10-03T02:01:35;0.20;;;0.20;;
14408;SDS011;7289;50.706;4.992;2022-10-03T02:04:14;0.10;;;0.10;;
14408;SDS011;7289;50.706;4.992;2022-10-03T02:06:57;0.20;;;0.20;;
14408;SDS011;7289;50.706;4.992;2022-10-03T02:09:33;0.20;;;0.20;;
14408;SDS011;7289;50.706;4.992;2022-10-03T02:12:08;0.20;;;0.20;;
14408;SDS011;7289;50.706;4.992;2022-10-03T02:14:46;0.20;;;0.20;;
14408;SDS011;7289;50.706;4.992;2022-10-03T02:17:23;0.20;;;0.20;;
14408;SDS011;7289;50.706;4.992;2022-10-03T02:19:59;0.20;;;0.20;;
14408;SDS011;7289;50.706;4.992;2022-10-03T02:22:40;0.20;;;0.20;;
14408;SDS011;7289;50.706;4.992;2022-10-03T02:25:17;0.20;;;0.20;;
14408;SDS011;7289;50.706;4.992;2022-10-03T02:28:01;0.20;;;0.20;;
14408;SDS011;7289;50.706;4.992;2022-10-03T02:30:45;0.20;;;0.20;;
14408;SDS011;7289;50.706;4.992;2022-10-03T02:33:41;0.20;;;0.20;;
14408;SDS011;7289;50.706;4.992;2022-10-03T02:42:34;0.10;;;0.10;;
14408;SDS011;7289;50.706;4.992;2022-10-03T02:48:31;0.20;;;0.20;;
14408;SDS011;7289;50.706;4.992;2022-10-03T02:51:26;0.20;;;0.20;;
14408;SDS011;7289;50.706;4.992;2022-10-03T02:57:25;0.20;;;0.20;;
14408;SDS011;7289;50.706;4.992;2022-10-03T03:00:18;0.20;;;0.20;;
14408;SDS011;7289;50.706;4.992;2022-10-03T03:02:57;0.20;;;0.20;;
14408;SDS011;7289;50.706;4.992;2022-10-03T03:06:07;0.20;;;0.20;;
14408;SDS011;7289;50.706;4.992;2022-10-03T03:09:01;0.20;;;0.20;;
14408;SDS011;7289;50.706;4.992;2022-10-03T03:18:03;0.20;;;0.20;;
14408;SDS011;7289;50.706;4.992;2022-10-03T03:20:43;0.20;;;0.20;;
14408;SDS011;7289;50.706;4.992;2022-10-03T03:23:34;0.20;;;0.20;;
14408;SDS011;7289;50.706;4.992;2022-10-03T03:26:14;0.20;;;0.20;;
14408;SDS011;7289;50.706;4.992;2022-10-03T03:28:56;0.13;;;0.13;;
14408;SDS011;7289;50.706;4.992;2022-10-03T03:31:33;0.20;;;0.20;;
14408;SDS011;7289;50.706;4.992;2022-10-03T03:34:12;0.20;;;0.20;;
14408;SDS011;7289;50.706;4.992;2022-10-03T03:36:48;0.20;;;0.20;;
14408;SDS011;7289;50.706;4.992;2022-10-03T03:39:44;0.20;;;0.20;;
14408;SDS011;7289;50.706;4.992;2022-10-03T03:42:34;0.20;;;0.20;;
14408;SDS011;7289;50.706;4.992;2022-10-03T03:45:20;0.20;;;0.20;;
14408;SDS011;7289;50.706;4.992;2022-10-03T03:48:07;0.20;;;0.20;;
14408;SDS011;7289;50.706;4.992;2022-10-03T03:50:51;0.20;;;0.20;;
14408;SDS011;7289;50.706;4.992;2022-10-03T03:53:42;0.20;;;0.20;;
14408;SDS011;7289;50.706;4.992;2022-10-03T03:56:38;0.20;;;0.20;;
14408;SDS011;7289;50.706;4.992;2022-10-03T03:59:25;0.20;;;0.20;;
14408;SDS011;7289;50.706;4.992;2022-10-03T04:02:09;0.20;;;0.20;;
14408;SDS011;7289;50.706;4.992;2022-10-03T04:04:49;0.20;;;0.20;;
14408;SDS011;7289;50.706;4.992;2022-10-03T04:07:31;0.13;;;0.13;;
14408;SDS011;7289;50.706;4.992;2022-10-03T04:10:15;0.20;;;0.20;;
14408;SDS011;7289;50.706;4.992;2022-10-03T04:12:58;0.10;;;0.10;;
14408;SDS011;7289;50.706;4.992;2022-10-03T04:15:53;0.20;;;0.20;;
14408;SDS011;7289;50.706;4.992;2022-10-03T04:18:47;0.20;;;0.20;;
14408;SDS011;7289;50.706;4.992;2022-10-03T04:21:31;0.10;;;0.10;;
14408;SDS011;7289;50.706;4.992;2022-10-03T04:27:47;0.20;;;0.20;;
14408;SDS011;7289;50.706;4.992;2022-10-03T04:30:34;0.20;;;0.20;;
14408;SDS011;7289;50.706;4.992;2022-10-03T04:33:15;0.20;;;0.20;;
14408;SDS011;7289;50.706;4.992;2022-10-03T04:36:11;0.10;;;0.10;;
14408;SDS011;7289;50.706;4.992;2022-10-03T04:38:58;0.20;;;0.20;;
14408;SDS011;7289;50.706;4.992;2022-10-03T04:41:37;0.20;;;0.20;;
14408;SDS011;7289;50.706;4.992;2022-10-03T04:44:17;0.20;;;0.20;;
14408;SDS011;7289;50.706;4.992;2022-10-03T04:46:57;0.20;;;0.20;;
14408;SDS011;7289;50.706;4.992;2022-10-03T04:49:34;0.20;;;0.20;;
14408;SDS011;7289;50.706;4.992;2022-10-03T04:52:12;0.20;;;0.20;;
14408;SDS011;7289;50.706;4.992;2022-10-03T04:54:46;0.20;;;0.20;;
14408;SDS011;7289;50.706;4.992;2022-10-03T04:57:25;0.20;;;0.20;;
14408;SDS011;7289;50.706;4.992;2022-10-03T05:00:02;0.20;;;0.20;;
14408;SDS011;7289;50.706;4.992;2022-10-03T05:02:40;0.20;;;0.20;;
14408;SDS011;7289;50.706;4.992;2022-10-03T05:05:22;0.20;;;0.20;;
14408;SDS011;7289;50.706;4.992;2022-10-03T05:07:58;0.20;;;0.20;;
14408;SDS011;7289;50.706;4.992;2022-10-03T05:10:41;0.20;;;0.20;;
14408;SDS011;7289;50.706;4.992;2022-10-03T05:13:18;0.20;;;0.20;;
14408;SDS011;7289;50.706;4.992;2022-10-03T05:16:02;0.20;;;0.20;;
14408;SDS011;7289;50.706;4.992;2022-10-03T05:18:39;0.20;;;0.20;;
14408;SDS011;7289;50.706;4.992;2022-10-03T05:21:12;0.20;;;0.20;;
14408;SDS011;7289;50.706;4.992;2022-10-03T05:23:48;0.20;;;0.20;;
14408;SDS011;7289;50.706;4.992;2022-10-03T05:26:32;0.20;;;0.20;;
14408;SDS011;7289;50.706;4.992;2022-10-03T05:29:16;0.20;;;0.20;;
14408;SDS011;7289;50.706;4.992;2022-10-03T05:31:55;0.10;;;0.10;;
14408;SDS011;7289;50.706;4.992;2022-10-03T05:34:49;0.20;;;0.20;;
14408;SDS011;7289;50.706;4.992;2022-10-03T05:37:44;0.20;;;0.20;;
14408;SDS011;7289;50.706;4.992;2022-10-03T05:40:30;0.20;;;0.20;;
14408;SDS011;7289;50.706;4.992;2022-10-03T05:43:01;0.20;;;0.20;;
14408;SDS011;7289;50.706;4.992;2022-10-03T05:45:37;0.20;;;0.20;;
14408;SDS011;7289;50.706;4.992;2022-10-03T05:48:21;0.20;;;0.20;;
14408;SDS011;7289;50.706;4.992;2022-10-03T05:51:12;0.20;;;0.20;;
14408;SDS011;7289;50.706;4.992;2022-10-03T05:54:07;0.20;;;0.20;;
14408;SDS011;7289;50.706;4.992;2022-10-03T05:56:57;0.20;;;0.20;;
14408;SDS011;7289;50.706;4.992;2022-10-03T06:00:00;0.20;;;0.20;;
14408;SDS011;7289;50.706;4.992;2022-10-03T06:05:51;0.20;;;0.20;;
14408;SDS011;7289;50.706;4.992;2022-10-03T06:08:43;0.20;;;0.20;;
14408;SDS011;7289;50.706;4.992;2022-10-03T06:11:45;0.20;;;0.20;;
14408;SDS011;7289;50.706;4.992;2022-10-03T06:14:41;0.20;;;0.20;;
14408;SDS011;7289;50.706;4.992;2022-10-03T06:17:27;0.20;;;0.20;;
14408;SDS011;7289;50.706;4.992;2022-10-03T06:20:25;0.20;;;0.20;;
14408;SDS011;7289;50.706;4.992;2022-10-03T06:26:33;0.20;;;0.20;;
14408;SDS011;7289;50.706;4.992;2022-10-03T06:32:31;0.20;;;0.20;;
14408;SDS011;7289;50.706;4.992;2022-10-03T06:35:44;0.20;;;0.20;;
14408;SDS011;7289;50.706;4.992;2022-10-03T06:38:47;0.20;;;0.20;;
14408;SDS011;7289;50.706;4.992;2022-10-03T06:42:08;0.20;;;0.20;;
14408;SDS011;7289;50.706;4.992;2022-10-03T06:48:17;0.20;;;0.20;;
14408;SDS011;7289;50.706;4.992;2022-10-03T06:51:05;0.20;;;0.20;;
14408;SDS011;7289;50.706;4.992;2022-10-03T06:54:03;0.20;;;0.20;;
14408;SDS011;7289;50.706;4.992;2022-10-03T06:57:09;0.20;;;0.20;;
14408;SDS011;7289;50.706;4.992;2022-10-03T07:06:02;0.20;;;0.20;;
14408;SDS011;7289;50.706;4.992;2022-10-03T07:08:46;0.20;;;0.20;;
14408;SDS011;7289;50.706;4.992;2022-10-03T07:11:53;0.20;;;0.20;;
14408;SDS011;7289;50.706;4.992;2022-10-03T07:18:35;0.10;;;0.10;;
14408;SDS011;7289;50.706;4.992;2022-10-03T07:27:54;0.20;;;0.20;;
14408;SDS011;7289;50.706;4.992;2022-10-03T07:30:34;0.20;;;0.20;;
14408;SDS011;7289;50.706;4.992;2022-10-03T07:36:28;0.20;;;0.20;;
14408;SDS011;7289;50.706;4.992;2022-10-03T07:45:38;0.10;;;0.10;;
14408;SDS011;7289;50.706;4.992;2022-10-03T07:51:15;0.17;;;0.17;;
14408;SDS011;7289;50.706;4.992;2022-10-03T07:54:13;0.10;;;0.10;;
14408;SDS011;7289;50.706;4.992;2022-10-03T07:57:08;0.10;;;0.10;;
14408;SDS011;7289;50.706;4.992;2022-10-03T08:00:05;0.10;;;0.10;;
14408;SDS011;7289;50.706;4.992;2022-10-03T08:05:54;0.15;;;0.15;;
14408;SDS011;7289;50.706;4.992;2022-10-03T08:08:54;0.10;;;0.10;;
14408;SDS011;7289;50.706;4.992;2022-10-03T08:11:47;0.10;;;0.10;;
14408;SDS011;7289;50.706;4.992;2022-10-03T08:14:41;0.10;;;0.10;;
14408;SDS011;7289;50.706;4.992;2022-10-03T08:17:34;0.10;;;0.10;;
14408;SDS011;7289;50.706;4.992;2022-10-03T08:20:39;0.10;;;0.10;;
14408;SDS011;7289;50.706;4.992;2022-10-03T08:23:25;0.10;;;0.10;;
14408;SDS011;7289;50.706;4.992;2022-10-03T08:26:15;0.10;;;0.10;;
14408;SDS011;7289;50.706;4.992;2022-10-03T08:28:51;0.10;;;0.10;;
14408;SDS011;7289;50.706;4.992;2022-10-03T08:34:57;0.10;;;0.10;;
14408;SDS011;7289;50.706;4.992;2022-10-03T08:38:04;0.10;;;0.10;;
14408;SDS011;7289;50.706;4.992;2022-10-03T08:44:09;0.03;;;0.03;;
14408;SDS011;7289;50.706;4.992;2022-10-03T08:47:11;0.10;;;0.10;;
14408;SDS011;7289;50.706;4.992;2022-10-03T08:53:10;0.10;;;0.10;;
14408;SDS011;7289;50.706;4.992;2022-10-03T08:56:02;0.10;;;0.10;;
14408;SDS011;7289;50.706;4.992;2022-10-03T09:01:43;0.10;;;0.10;;
14408;SDS011;7289;50.706;4.992;2022-10-03T09:04:55;0.10;;;0.10;;
14408;SDS011;7289;50.706;4.992;2022-10-03T09:07:51;0.10;;;0.10;;
14408;SDS011;7289;50.706;4.992;2022-10-03T09:10:55;0.10;;;0.10;;
14408;SDS011;7289;50.706;4.992;2022-10-03T09:13:55;0.10;;;0.10;;
14408;SDS011;7289;50.706;4.992;2022-10-03T09:16:51;0.10;;;0.10;;
14408;SDS011;7289;50.706;4.992;2022-10-03T09:25:21;0.10;;;0.10;;
14408;SDS011;7289;50.706;4.992;2022-10-03T09:28:20;0.10;;;0.10;;
14408;SDS011;7289;50.706;4.992;2022-10-03T09:31:19;0.10;;;0.10;;
14408;SDS011;7289;50.706;4.992;2022-10-03T09:34:10;0.10;;;0.10;;
14408;SDS011;7289;50.706;4.992;2022-10-03T09:37:18;0.17;;;0.17;;
14408;SDS011;7289;50.706;4.992;2022-10-03T09:43:01;0.10;;;0.10;;
14408;SDS011;7289;50.706;4.992;2022-10-03T09:46:08;0.10;;;0.10;;
14408;SDS011;7289;50.706;4.992;2022-10-03T09:55:09;0.10;;;0.10;;
14408;SDS011;7289;50.706;4.992;2022-10-03T09:57:56;0.10;;;0.10;;
14408;SDS011;7289;50.706;4.992;2022-10-03T10:00:48;0.10;;;0.10;;
14408;SDS011;7289;50.706;4.992;2022-10-03T10:04:04;0.10;;;0.10;;
14408;SDS011;7289;50.706;4.992;2022-10-03T10:13:35;0.10;;;0.10;;
14408;SDS011;7289;50.706;4.992;2022-10-03T10:16:41;0.10;;;0.10;;
14408;SDS011;7289;50.706;4.992;2022-10-03T10:19:47;0.10;;;0.10;;
14408;SDS011;7289;50.706;4.992;2022-10-03T10:22:34;0.10;;;0.10;;
14408;SDS011;7289;50.706;4.992;2022-10-03T10:25:36;0.10;;;0.10;;
14408;SDS011;7289;50.706;4.992;2022-10-03T10:34:57;0.10;;;0.10;;
14408;SDS011;7289;50.706;4.992;2022-10-03T10:38:22;0.10;;;0.10;;
14408;SDS011;7289;50.706;4.992;2022-10-03T10:44:28;0.10;;;0.10;;
14408;SDS011;7289;50.706;4.992;2022-10-03T10:47:28;0.10;;;0.10;;
14408;SDS011;7289;50.706;4.992;2022-10-03T11:09:11;0.10;;;0.10;;
14408;SDS011;7289;50.706;4.992;2022-10-03T11:25:21;0.10;;;0.10;;
14408;SDS011;7289;50.706;4.992;2022-10-03T11:31:35;0.00;;;0.00;;
14408;SDS011;7289;50.706;4.992;2022-10-03T11:37:36;0.08;;;0.08;;
14408;SDS011;7289;50.706;4.992;2022-10-03T11:40:23;0.10;;;0.10;;
14408;SDS011;7289;50.706;4.992;2022-10-03T11:43:03;0.00;;;0.00;;
14408;SDS011;7289;50.706;4.992;2022-10-03T11:46:05;0.00;;;0.00;;
14408;SDS011;7289;50.706;4.992;2022-10-03T11:48:48;0.10;;;0.10;;
14408;SDS011;7289;50.706;4.992;2022-10-03T11:51:24;0.00;;;0.00;;
14408;SDS011;7289;50.706;4.992;2022-10-03T11:54:05;0.00;;;0.00;;
14408;SDS011;7289;50.706;4.992;2022-10-03T11:57:00;0.10;;;0.10;;
14408;SDS011;7289;50.706;4.992;2022-10-03T11:59:43;0.10;;;0.10;;
14408;SDS011;7289;50.706;4.992;2022-10-03T12:02:34;0.05;;;0.05;;
14408;SDS011;7289;50.706;4.992;2022-10-03T12:05:26;0.00;;;0.00;;
14408;SDS011;7289;50.706;4.992;2022-10-03T12:08:09;0.00;;;0.00;;
14408;SDS011;7289;50.706;4.992;2022-10-03T12:11:05;0.10;;;0.10;;
14408;SDS011;7289;50.706;4.992;2022-10-03T12:13:43;0.10;;;0.10;;
14408;SDS011;7289;50.706;4.992;2022-10-03T12:16:19;0.00;;;0.00;;
14408;SDS011;7289;50.706;4.992;2022-10-03T12:18:55;0.10;;;0.10;;
14408;SDS011;7289;50.706;4.992;2022-10-03T12:21:35;0.10;;;0.10;;
14408;SDS011;7289;50.706;4.992;2022-10-03T12:24:17;0.10;;;0.10;;
14408;SDS011;7289;50.706;4.992;2022-10-03T12:26:56;0.10;;;0.10;;
14408;SDS011;7289;50.706;4.992;2022-10-03T12:29:32;0.10;;;0.10;;
14408;SDS011;7289;50.706;4.992;2022-10-03T12:32:09;0.10;;;0.10;;
14408;SDS011;7289;50.706;4.992;2022-10-03T12:34:48;0.00;;;0.00;;
14408;SDS011;7289;50.706;4.992;2022-10-03T12:37:27;0.00;;;0.00;;
14408;SDS011;7289;50.706;4.992;2022-10-03T12:40:11;0.10;;;0.10;;
14408;SDS011;7289;50.706;4.992;2022-10-03T12:42:45;0.10;;;0.10;;
14408;SDS011;7289;50.706;4.992;2022-10-03T12:45:22;0.00;;;0.00;;
14408;SDS011;7289;50.706;4.992;2022-10-03T12:47:58;0.00;;;0.00;;
14408;SDS011;7289;50.706;4.992;2022-10-03T12:50:37;0.10;;;0.10;;
14408;SDS011;7289;50.706;4.992;2022-10-03T12:53:30;0.00;;;0.00;;
14408;SDS011;7289;50.706;4.992;2022-10-03T12:56:12;0.10;;;0.10;;
14408;SDS011;7289;50.706;4.992;2022-10-03T12:58:49;0.10;;;0.10;;
14408;SDS011;7289;50.706;4.992;2022-10-03T13:01:25;0.00;;;0.00;;
14408;SDS011;7289;50.706;4.992;2022-10-03T13:04:07;0.10;;;0.10;;
14408;SDS011;7289;50.706;4.992;2022-10-03T13:06:48;0.10;;;0.10;;
14408;SDS011;7289;50.706;4.992;2022-10-03T13:09:38;0.10;;;0.10;;
14408;SDS011;7289;50.706;4.992;2022-10-03T13:12:26;0.10;;;0.10;;
14408;SDS011;7289;50.706;4.992;2022-10-03T13:18:14;0.10;;;0.10;;
14408;SDS011;7289;50.706;4.992;2022-10-03T13:20:54;0.10;;;0.10;;
14408;SDS011;7289;50.706;4.992;2022-10-03T13:23:31;0.10;;;0.10;;
14408;SDS011;7289;50.706;4.992;2022-10-03T13:26:10;0.00;;;0.00;;
14408;SDS011;7289;50.706;4.992;2022-10-03T13:28:51;0.10;;;0.10;;
14408;SDS011;7289;50.706;4.992;2022-10-03T13:31:37;0.00;;;0.00;;
14408;SDS011;7289;50.706;4.992;2022-10-03T13:34:23;0.00;;;0.00;;
14408;SDS011;7289;50.706;4.992;2022-10-03T13:36:54;0.10;;;0.10;;
14408;SDS011;7289;50.706;4.992;2022-10-03T13:39:33;0.08;;;0.08;;
14408;SDS011;7289;50.706;4.992;2022-10-03T13:42:13;0.00;;;0.00;;
14408;SDS011;7289;50.706;4.992;2022-10-03T13:44:48;0.10;;;0.10;;
14408;SDS011;7289;50.706;4.992;2022-10-03T13:47:25;0.10;;;0.10;;
14408;SDS011;7289;50.706;4.992;2022-10-03T13:50:14;0.10;;;0.10;;
14408;SDS011;7289;50.706;4.992;2022-10-03T13:52:45;0.00;;;0.00;;
14408;SDS011;7289;50.706;4.992;2022-10-03T13:55:22;0.00;;;0.00;;
14408;SDS011;7289;50.706;4.992;2022-10-03T14:01:06;0.10;;;0.10;;
14408;SDS011;7289;50.706;4.992;2022-10-03T14:03:52;0.10;;;0.10;;
14408;SDS011;7289;50.706;4.992;2022-10-03T14:07:00;0.08;;;0.08;;
14408;SDS011;7289;50.706;4.992;2022-10-03T14:09:37;0.00;;;0.00;;
14408;SDS011;7289;50.706;4.992;2022-10-03T14:12:20;0.00;;;0.00;;
14408;SDS011;7289;50.706;4.992;2022-10-03T14:18:17;0.10;;;0.10;;
14408;SDS011;7289;50.706;4.992;2022-10-03T14:21:14;0.00;;;0.00;;
14408;SDS011;7289;50.706;4.992;2022-10-03T14:24:04;0.03;;;0.03;;
14408;SDS011;7289;50.706;4.992;2022-10-03T14:26:40;0.00;;;0.00;;
14408;SDS011;7289;50.706;4.992;2022-10-03T14:29:16;0.10;;;0.10;;
14408;SDS011;7289;50.706;4.992;2022-10-03T14:31:50;0.10;;;0.10;;
14408;SDS011;7289;50.706;4.992;2022-10-03T14:34:30;0.00;;;0.00;;
14408;SDS011;7289;50.706;4.992;2022-10-03T14:37:12;0.00;;;0.00;;
14408;SDS011;7289;50.706;4.992;2022-10-03T14:39:52;0.10;;;0.10;;
14408;SDS011;7289;50.706;4.992;2022-10-03T14:45:32;0.10;;;0.10;;
14408;SDS011;7289;50.706;4.992;2022-10-03T14:48:06;0.10;;;0.10;;
14408;SDS011;7289;50.706;4.992;2022-10-03T14:50:41;0.00;;;0.00;;
14408;SDS011;7289;50.706;4.992;2022-10-03T14:53:14;0.03;;;0.03;;
14408;SDS011;7289;50.706;4.992;2022-10-03T14:55:57;0.00;;;0.00;;
14408;SDS011;7289;50.706;4.992;2022-10-03T14:58:29;0.00;;;0.00;;
14408;SDS011;7289;50.706;4.992;2022-10-03T15:01:02;0.03;;;0.03;;
14408;SDS011;7289;50.706;4.992;2022-10-03T15:03:39;0.00;;;0.00;;
14408;SDS011;7289;50.706;4.992;2022-10-03T15:06:29;0.00;;;0.00;;
14408;SDS011;7289;50.706;4.992;2022-10-03T15:09:00;0.10;;;0.10;;
14408;SDS011;7289;50.706;4.992;2022-10-03T15:11:34;0.10;;;0.10;;
14408;SDS011;7289;50.706;4.992;2022-10-03T15:14:13;0.10;;;0.10;;
14408;SDS011;7289;50.706;4.992;2022-10-03T15:16:44;0.00;;;0.00;;
14408;SDS011;7289;50.706;4.992;2022-10-03T15:19:16;0.00;;;0.00;;
14408;SDS011;7289;50.706;4.992;2022-10-03T15:21:49;0.00;;;0.00;;
14408;SDS011;7289;50.706;4.992;2022-10-03T15:24:20;0.10;;;0.10;;
14408;SDS011;7289;50.706;4.992;2022-10-03T15:26:54;0.00;;;0.00;;
14408;SDS011;7289;50.706;4.992;2022-10-03T15:29:28;0.10;;;0.10;;
14408;SDS011;7289;50.706;4.992;2022-10-03T15:31:57;0.00;;;0.00;;
14408;SDS011;7289;50.706;4.992;2022-10-03T15:34:28;0.10;;;0.10;;
14408;SDS011;7289;50.706;4.992;2022-10-03T15:36:59;0.10;;;0.10;;
14408;SDS011;7289;50.706;4.992;2022-10-03T15:39:36;0.00;;;0.00;;
14408;SDS011;7289;50.706;4.992;2022-10-03T15:42:18;0.00;;;0.00;;
14408;SDS011;7289;50.706;4.992;2022-10-03T15:44:50;0.10;;;0.10;;
14408;SDS011;7289;50.706;4.992;2022-10-03T15:47:20;0.03;;;0.03;;
14408;SDS011;7289;50.706;4.992;2022-10-03T15:49:53;0.00;;;0.00;;
14408;SDS011;7289;50.706;4.992;2022-10-03T15:52:26;0.00;;;0.00;;
14408;SDS011;7289;50.706;4.992;2022-10-03T15:55:06;0.10;;;0.10;;
14408;SDS011;7289;50.706;4.992;2022-10-03T15:57:43;0.10;;;0.10;;
14408;SDS011;7289;50.706;4.992;2022-10-03T16:00:20;0.00;;;0.00;;
14408;SDS011;7289;50.706;4.992;2022-10-03T16:02:55;0.10;;;0.10;;
14408;SDS011;7289;50.706;4.992;2022-10-03T16:05:31;0.08;;;0.08;;
14408;SDS011;7289;50.706;4.992;2022-10-03T16:08:03;0.03;;;0.03;;
14408;SDS011;7289;50.706;4.992;2022-10-03T16:10:35;0.10;;;0.10;;
14408;SDS011;7289;50.706;4.992;2022-10-03T16:13:15;0.10;;;0.10;;
14408;SDS011;7289;50.706;4.992;2022-10-03T16:15:56;0.10;;;0.10;;
14408;SDS011;7289;50.706;4.992;2022-10-03T16:18:40;0.10;;;0.10;;
14408;SDS011;7289;50.706;4.992;2022-10-03T16:21:14;0.10;;;0.10;;
14408;SDS011;7289;50.706;4.992;2022-10-03T16:23:49;0.10;;;0.10;;
14408;SDS011;7289;50.706;4.992;2022-10-03T16:26:22;0.03;;;0.03;;
14408;SDS011;7289;50.706;4.992;2022-10-03T16:28:57;0.10;;;0.10;;
14408;SDS011;7289;50.706;4.992;2022-10-03T16:31:34;0.10;;;0.10;;
14408;SDS011;7289;50.706;4.992;2022-10-03T16:34:11;0.10;;;0.10;;
14408;SDS011;7289;50.706;4.992;2022-10-03T16:36:42;0.10;;;0.10;;
14408;SDS011;7289;50.706;4.992;2022-10-03T16:39:15;0.10;;;0.10;;
14408;SDS011;7289;50.706;4.992;2022-10-03T16:41:48;0.10;;;0.10;;
14408;SDS011;7289;50.706;4.992;2022-10-03T16:44:23;0.10;;;0.10;;
14408;SDS011;7289;50.706;4.992;2022-10-03T16:46:56;0.10;;;0.10;;
14408;SDS011;7289;50.706;4.992;2022-10-03T16:49:35;0.10;;;0.10;;
14408;SDS011;7289;50.706;4.992;2022-10-03T16:52:27;0.00;;;0.00;;
14408;SDS011;7289;50.706;4.992;2022-10-03T16:55:00;0.10;;;0.10;;
14408;SDS011;7289;50.706;4.992;2022-10-03T16:57:35;0.10;;;0.10;;
14408;SDS011;7289;50.706;4.992;2022-10-03T17:00:15;0.10;;;0.10;;
14408;SDS011;7289;50.706;4.992;2022-10-03T17:02:48;0.10;;;0.10;;
14408;SDS011;7289;50.706;4.992;2022-10-03T17:05:17;0.10;;;0.10;;
14408;SDS011;7289;50.706;4.992;2022-10-03T17:07:46;0.10;;;0.10;;
14408;SDS011;7289;50.706;4.992;2022-10-03T17:10:20;0.10;;;0.10;;
14408;SDS011;7289;50.706;4.992;2022-10-03T17:12:55;0.10;;;0.10;;
14408;SDS011;7289;50.706;4.992;2022-10-03T17:15:31;0.10;;;0.10;;
14408;SDS011;7289;50.706;4.992;2022-10-03T17:18:06;0.10;;;0.10;;
14408;SDS011;7289;50.706;4.992;2022-10-03T17:20:51;0.10;;;0.10;;
14408;SDS011;7289;50.706;4.992;2022-10-03T17:23:25;0.10;;;0.10;;
14408;SDS011;7289;50.706;4.992;2022-10-03T17:25:59;0.10;;;0.10;;
14408;SDS011;7289;50.706;4.992;2022-10-03T17:28:36;0.10;;;0.10;;
14408;SDS011;7289;50.706;4.992;2022-10-03T17:31:26;0.10;;;0.10;;
14408;SDS011;7289;50.706;4.992;2022-10-03T17:34:03;0.10;;;0.10;;
14408;SDS011;7289;50.706;4.992;2022-10-03T17:36:41;0.10;;;0.10;;
14408;SDS011;7289;50.706;4.992;2022-10-03T17:39:36;0.10;;;0.10;;
14408;SDS011;7289;50.706;4.992;2022-10-03T17:42:21;0.10;;;0.10;;
14408;SDS011;7289;50.706;4.992;2022-10-03T17:45:10;0.10;;;0.10;;
14408;SDS011;7289;50.706;4.992;2022-10-03T17:47:51;0.10;;;0.10;;
14408;SDS011;7289;50.706;4.992;2022-10-03T17:50:24;0.10;;;0.10;;
14408;SDS011;7289;50.706;4.992;2022-10-03T17:52:57;0.10;;;0.10;;
14408;SDS011;7289;50.706;4.992;2022-10-03T17:55:28;0.10;;;0.10;;
14408;SDS011;7289;50.706;4.992;2022-10-03T17:58:02;0.10;;;0.10;;
14408;SDS011;7289;50.706;4.992;2022-10-03T18:00:33;0.10;;;0.10;;
14408;SDS011;7289;50.706;4.992;2022-10-03T18:03:24;0.10;;;0.10;;
14408;SDS011;7289;50.706;4.992;2022-10-03T18:05:57;0.10;;;0.10;;
14408;SDS011;7289;50.706;4.992;2022-10-03T18:08:29;0.10;;;0.10;;
14408;SDS011;7289;50.706;4.992;2022-10-03T18:11:02;0.10;;;0.10;;
14408;SDS011;7289;50.706;4.992;2022-10-03T18:13:34;0.10;;;0.10;;
14408;SDS011;7289;50.706;4.992;2022-10-03T18:16:09;0.10;;;0.10;;
14408;SDS011;7289;50.706;4.992;2022-10-03T18:19:04;0.10;;;0.10;;
14408;SDS011;7289;50.706;4.992;2022-10-03T18:24:50;0.10;;;0.10;;
14408;SDS011;7289;50.706;4.992;2022-10-03T18:27:29;0.10;;;0.10;;
14408;SDS011;7289;50.706;4.992;2022-10-03T18:30:18;0.10;;;0.10;;
14408;SDS011;7289;50.706;4.992;2022-10-03T18:32:49;0.10;;;0.10;;
14408;SDS011;7289;50.706;4.992;2022-10-03T18:35:21;0.10;;;0.10;;
14408;SDS011;7289;50.706;4.992;2022-10-03T18:37:54;0.10;;;0.10;;
14408;SDS011;7289;50.706;4.992;2022-10-03T18:40:29;0.10;;;0.10;;
14408;SDS011;7289;50.706;4.992;2022-10-03T18:42:59;0.10;;;0.10;;
14408;SDS011;7289;50.706;4.992;2022-10-03T18:45:32;0.10;;;0.10;;
14408;SDS011;7289;50.706;4.992;2022-10-03T18:48:06;0.10;;;0.10;;
14408;SDS011;7289;50.706;4.992;2022-10-03T18:50:46;0.10;;;0.10;;
14408;SDS011;7289;50.706;4.992;2022-10-03T18:53:24;0.10;;;0.10;;
14408;SDS011;7289;50.706;4.992;2022-10-03T18:56:00;0.10;;;0.10;;
14408;SDS011;7289;50.706;4.992;2022-10-03T18:58:32;0.10;;;0.10;;
14408;SDS011;7289;50.706;4.992;2022-10-03T19:01:04;0.10;;;0.10;;
14408;SDS011;7289;50.706;4.992;2022-10-03T19:03:40;0.10;;;0.10;;
14408;SDS011;7289;50.706;4.992;2022-10-03T19:06:15;0.10;;;0.10;;
14408;SDS011;7289;50.706;4.992;2022-10-03T19:08:47;0.10;;;0.10;;
14408;SDS011;7289;50.706;4.992;2022-10-03T19:11:20;0.10;;;0.10;;
14408;SDS011;7289;50.706;4.992;2022-10-03T19:13:55;0.10;;;0.10;;
14408;SDS011;7289;50.706;4.992;2022-10-03T19:16:32;0.10;;;0.10;;
14408;SDS011;7289;50.706;4.992;2022-10-03T19:19:10;0.10;;;0.10;;
14408;SDS011;7289;50.706;4.992;2022-10-03T19:21:46;0.10;;;0.10;;
14408;SDS011;7289;50.706;4.992;2022-10-03T19:24:17;0.10;;;0.10;;
14408;SDS011;7289;50.706;4.992;2022-10-03T19:27:09;0.10;;;0.10;;
14408;SDS011;7289;50.706;4.992;2022-10-03T19:29:39;0.10;;;0.10;;
14408;SDS011;7289;50.706;4.992;2022-10-03T19:32:15;0.13;;;0.13;;